Time;durP1;ratioP1;P1;durP2;ratioP2;P2;SDS_P1;SDS_P2;PMS_P1;PMS_P2;Temp;Humidity;BMP_temperature;BMP_pressure;BME280_temperature;BME280_humidity;BME280_pressure;Samples;Min_cycle;Max_cycle;Signal;HPM_P1;HPM_P2
2023/05/15 00:09:26;;;;;;;;;;;;;;;;;;;;;
2023/05/15 00:13:08;;;;;;;32.38;26.55;;;15.30;99.90;;;;;;4777615;29;20050;-92
2023/05/15 00:16:05;;;;;;;;;;;15.20;99.90;;;;;;4862240;24;20061;-91
2023/05/15 00:44:57;;;;;;;;;;;;;;;;;;;;;
2023/05/15 01:03:04;;;;;;;;;;;;;;;;;;;;;
2023/05/15 01:16:15;;;;;;;;;;;;;;;;;;;;;
2023/05/15 01:40:25;;;;;;;;;;;;;;;;;;;;;
2023/05/15 01:43:57;;;;;;;;;;;;;;;;;;;;;
2023/05/15 03:31:07;;;;;;;;;;;;;;;;;;;;;
2023/05/15 03:34:42;;;;;;;;;;;;;;;;;;;;;
2023/05/15 03:42:10;;;;;;;33.42;26.88;;;13.30;99.90;;;;;;4826845;24;20050;-91
2023/05/15 04:02:11;;;;;;;32.13;24.67;;;13.20;99.90;;;;;;4751046;30;20546;-92
2023/05/15 04:04:43;;;;;;;34.75;25.83;;;13.10;99.90;;;;;;4773167;29;20061;-91
2023/05/15 04:16:59;;;;;;;30.40;24.38;;;12.90;99.90;;;;;;4848431;24;20050;-92
2023/05/15 04:23:45;;;;;;;33.40;25.88;;;12.90;99.90;;;;;;4767253;24;20106;-93
2023/05/15 04:26:14;;;;;;;31.35;25.30;;;12.90;99.90;;;;;;4842766;29;20057;-89
2023/05/15 04:32:39;;;;;;;29.95;24.73;;;12.80;99.90;;;;;;4938907;24;20137;-91
2023/05/15 04:35:09;;;;;;;31.00;25.30;;;12.80;99.90;;;;;;4909515;24;20056;-90
2023/05/15 04:37:36;;;;;;;28.13;23.10;;;12.70;99.90;;;;;;4858686;29;20065;-90
2023/05/15 04:40:06;;;;;;;29.42;22.67;;;12.70;99.90;;;;;;4868449;23;20065;-90
2023/05/15 04:42:41;;;;;;;29.90;24.02;;;12.60;99.90;;;;;;4858398;29;20052;-93
2023/05/15 04:45:08;;;;;;;29.65;23.67;;;12.50;99.90;;;;;;4838850;29;20046;-91
2023/05/15 04:50:39;;;;;;;26.98;23.02;;;12.40;99.90;;;;;;4849450;29;20045;-91
2023/05/15 04:53:13;;;;;;;28.40;23.45;;;12.40;99.90;;;;;;4848430;29;20053;-91
2023/05/15 04:55:54;;;;;;;31.75;24.58;;;12.30;99.90;;;;;;4853123;29;20474;-91
2023/05/15 04:58:30;;;;;;;27.73;23.15;;;12.30;99.90;;;;;;4859423;29;20120;-91
2023/05/15 05:00:55;;;;;;;27.98;22.63;;;12.30;99.90;;;;;;4851148;29;20060;-90
2023/05/15 05:03:39;;;;;;;25.63;22.45;;;12.30;99.90;;;;;;4842113;29;20050;-91
2023/05/15 05:06:05;;;;;;;28.65;24.48;;;12.20;99.90;;;;;;4852259;29;20061;-91
2023/05/15 05:08:34;;;;;;;28.52;23.63;;;12.10;99.90;;;;;;4854734;29;20090;-91
2023/05/15 05:16:55;;;;;;;28.33;23.67;;;12.10;99.90;;;;;;4843921;29;20061;-92
2023/05/15 05:19:50;;;;;;;27.65;23.13;;;12.20;99.90;;;;;;4843596;29;20046;-92
2023/05/15 05:22:18;;;;;;;29.60;23.75;;;12.10;99.90;;;;;;4842985;29;20098;-93
2023/05/15 05:25:58;;;;;;;27.20;21.63;;;12.10;99.90;;;;;;4843574;29;20111;-93
2023/05/15 05:28:56;;;;;;;26.33;22.58;;;12.10;99.90;;;;;;4831990;29;20053;-92
2023/05/15 05:35:55;;;;;;;24.23;21.20;;;12.00;99.90;;;;;;4763785;30;20039;-94
2023/05/15 05:38:26;;;;;;;25.63;21.08;;;12.00;99.90;;;;;;4705331;30;20518;-92
2023/05/15 05:41:12;;;;;;;26.48;22.70;;;12.00;99.90;;;;;;4751935;30;20474;-90
2023/05/15 05:44:09;;;;;;;;;;;;;;;;;;;;;
2023/05/15 05:47:31;;;;;;;;;;;;;;;;;;;;;
2023/05/15 05:51:01;;;;;;;;;;;12.20;99.90;;;;;;4774106;29;20501;-90
2023/05/15 05:54:13;;;;;;;24.00;20.85;;;12.10;99.90;;;;;;4832329;29;20045;-91
2023/05/15 05:57:30;;;;;;;26.52;22.17;;;12.20;99.90;;;;;;4825868;29;20091;-90
2023/05/15 06:09:51;;;;;;;;;;;;;;;;;;;;;
2023/05/15 06:16:19;;;;;;;25.08;20.63;;;12.50;99.90;;;;;;4806041;29;20432;-93
2023/05/15 07:03:15;;;;;;;20.55;18.38;;;13.40;99.90;;;;;;4753747;30;20094;-91
2023/05/15 07:21:07;;;;;;;21.40;19.00;;;13.80;99.90;;;;;;4843808;29;20114;-92
2023/05/15 07:31:08;;;;;;;19.67;17.52;;;14.20;99.90;;;;;;4824943;24;20134;-90
2023/05/15 07:37:30;;;;;;;19.15;17.05;;;14.30;99.90;;;;;;5301616;24;20593;-91
2023/05/15 07:40:30;;;;;;;19.83;16.60;;;14.30;99.90;;;;;;4843091;29;20418;-91
2023/05/15 07:50:30;;;;;;;19.88;17.33;;;14.60;99.90;;;;;;4797610;29;20117;-90
2023/05/15 07:54:21;;;;;;;19.50;17.30;;;14.70;99.90;;;;;;4849947;24;20064;-90
2023/05/15 08:00:07;;;;;;;21.65;17.33;;;14.80;99.90;;;;;;4849616;24;20519;-90
2023/05/15 08:03:00;;;;;;;20.08;16.50;;;14.90;99.90;;;;;;4809734;29;20054;-88
2023/05/15 08:05:27;;;;;;;18.80;16.80;;;15.00;99.90;;;;;;4889516;24;20062;-87
2023/05/15 08:07:59;;;;;;;19.98;17.20;;;15.00;99.90;;;;;;4846196;29;20047;-87
2023/05/15 08:10:43;;;;;;;19.55;16.90;;;15.20;99.90;;;;;;4827726;29;20133;-89
2023/05/15 08:14:00;;;;;;;;;;;;;;;;;;;;;
2023/05/15 08:22:09;;;;;;;21.27;15.50;;;15.50;99.90;;;;;;5723071;24;20058;-90
2023/05/15 08:34:54;;;;;;;;;;;;;;;;;;;;;
2023/05/15 09:37:29;;;;;;;14.52;12.52;;;17.50;99.00;;;;;;5350813;24;19925;-89
2023/05/15 09:43:12;;;;;;;13.65;11.73;;;17.70;99.80;;;;;;4821257;29;20082;-89
2023/05/15 09:45:41;;;;;;;16.70;11.15;;;17.90;99.60;;;;;;4823914;29;20093;-90
2023/05/15 09:48:26;;;;;;;13.90;11.75;;;17.90;97.80;;;;;;4823148;29;20102;-90
2023/05/15 09:50:53;;;;;;;16.52;11.25;;;18.00;97.10;;;;;;4823725;29;20057;-91
2023/05/15 09:53:38;;;;;;;14.40;12.00;;;18.10;96.20;;;;;;4823589;29;20422;-89
2023/05/15 09:56:19;;;;;;;17.08;11.52;;;18.10;97.30;;;;;;4823137;29;20479;-89
2023/05/15 09:58:52;;;;;;;19.13;10.73;;;18.20;97.50;;;;;;4838834;29;20085;-91
2023/05/15 10:01:44;;;;;;;14.65;10.70;;;18.30;95.30;;;;;;4835149;29;20075;-90
2023/05/15 10:04:33;;;;;;;13.23;11.02;;;18.30;94.60;;;;;;4817923;29;20050;-92
2023/05/15 10:06:59;;;;;;;15.98;11.95;;;18.40;96.00;;;;;;4827492;29;20129;-91
2023/05/15 10:09:57;;;;;;;14.05;10.85;;;18.50;97.20;;;;;;4824119;29;20203;-92
2023/05/15 10:12:44;;;;;;;14.52;10.90;;;18.50;95.80;;;;;;4822529;29;20182;-94
2023/05/15 10:15:20;;;;;;;13.50;11.43;;;18.60;95.00;;;;;;4824544;29;20444;-92
2023/05/15 10:18:15;;;;;;;12.98;11.30;;;18.70;96.40;;;;;;4823142;29;20119;-91
2023/05/15 10:20:43;;;;;;;12.45;10.13;;;18.70;97.00;;;;;;4853804;24;20062;-92
2023/05/15 10:29:30;;;;;;;12.98;10.38;;;18.90;96.30;;;;;;4822104;29;20065;-92
2023/05/15 10:32:52;;;;;;;;;;;;;;;;;;;;;
2023/05/15 10:42:18;;;;;;;14.60;11.10;;;19.20;96.10;;;;;;4871658;24;20114;-92
2023/05/15 12:05:35;;;;;;;11.98;9.35;;;20.60;92.90;;;;;;5873802;24;20025;-93
2023/05/15 12:18:06;;;;;;;12.37;8.80;;;20.70;92.50;;;;;;5527767;24;20058;-92
2023/05/15 12:20:52;;;;;;;10.35;8.57;;;20.80;91.90;;;;;;4825926;29;20137;-92
2023/05/15 12:23:20;;;;;;;11.57;9.57;;;20.90;93.30;;;;;;4848572;29;20411;-89
2023/05/15 12:26:11;;;;;;;14.45;8.27;;;20.80;94.30;;;;;;4864578;29;20492;-94
2023/05/15 12:29:10;;;;;;;10.85;8.10;;;20.80;92.50;;;;;;4839307;29;20132;-93
2023/05/15 12:43:31;;;;;;;10.82;7.80;;;20.80;92.00;;;;;;4858856;29;20061;-91
2023/05/15 12:45:57;;;;;;;10.55;8.75;;;20.80;93.10;;;;;;4846272;24;20073;-91
2023/05/15 13:13:17;;;;;;;11.85;7.97;;;20.90;91.90;;;;;;4827207;24;20056;-91
2023/05/15 13:15:57;;;;;;;;;;;;;;;;;;;;;
2023/05/15 13:22:42;;;;;;;10.30;8.50;;;21.00;91.80;;;;;;4824361;24;20061;-92
2023/05/15 13:25:47;;;;;;;10.70;7.15;;;21.00;94.00;;;;;;4847721;24;20414;-92
2023/05/15 13:28:50;;;;;;;10.13;7.53;;;21.10;92.70;;;;;;4888749;24;20054;-95
2023/05/15 13:31:39;;;;;;;10.48;6.53;;;21.10;93.00;;;;;;4845948;24;20564;-92
2023/05/15 13:34:53;;;;;;;11.00;7.28;;;21.10;91.40;;;;;;4838616;29;20468;-92
2023/05/15 13:38:00;;;;;;;9.48;8.15;;;21.00;92.30;;;;;;4826461;29;20050;-95
2023/05/15 13:44:26;;;;;;;;;;;21.10;94.50;;;;;;4826349;29;20061;-93
2023/05/15 13:52:32;;;;;;;8.73;6.88;;;21.00;97.20;;;;;;4890391;24;20209;-93
2023/05/15 13:58:27;;;;;;;7.80;6.00;;;21.00;97.30;;;;;;4879438;24;20134;-91
2023/05/15 14:00:58;;;;;;;8.25;7.07;;;21.10;95.50;;;;;;4845921;29;20106;-93
2023/05/15 14:03:36;;;;;;;7.07;4.57;;;21.20;98.20;;;;;;4841960;29;20109;-92
2023/05/15 14:06:22;;;;;;;7.53;6.40;;;21.20;95.30;;;;;;4845817;29;20053;-92
2023/05/15 14:09:03;;;;;;;9.82;5.30;;;21.30;96.90;;;;;;4839938;29;20057;-91
2023/05/15 14:11:38;;;;;;;7.85;5.28;;;21.40;96.00;;;;;;4846936;29;20049;-89
2023/05/15 14:14:13;;;;;;;7.80;6.05;;;21.40;95.50;;;;;;4849163;29;20520;-93
2023/05/15 14:16:42;;;;;;;7.88;5.95;;;21.40;97.20;;;;;;4848345;29;20049;-90
2023/05/15 14:19:14;;;;;;;9.38;5.63;;;21.50;96.40;;;;;;4848269;29;20102;-90
2023/05/15 14:21:39;;;;;;;8.80;6.10;;;21.50;95.00;;;;;;4841761;29;20415;-92
2023/05/15 14:24:06;;;;;;;7.15;5.95;;;21.60;97.00;;;;;;4826522;29;20041;-92
2023/05/15 14:26:32;;;;;;;7.53;5.90;;;21.50;98.00;;;;;;4842871;29;20041;-94
2023/05/15 14:29:04;;;;;;;10.05;5.93;;;21.60;96.80;;;;;;4852377;29;20494;-93
2023/05/15 14:31:48;;;;;;;7.82;5.50;;;21.60;95.70;;;;;;4847611;29;20554;-92
2023/05/15 14:34:13;;;;;;;7.93;5.90;;;21.60;95.20;;;;;;4846744;29;20045;-89
2023/05/15 14:36:39;;;;;;;9.30;5.93;;;21.60;95.40;;;;;;4853044;29;20034;-92
2023/05/15 14:39:05;;;;;;;10.70;6.38;;;21.60;95.70;;;;;;4849292;29;20049;-91
2023/05/15 14:41:33;;;;;;;10.90;6.57;;;21.50;94.10;;;;;;4846283;29;20480;-91
2023/05/15 14:44:04;;;;;;;9.13;6.00;;;21.40;92.60;;;;;;4859923;29;20102;-90
2023/05/15 14:46:41;;;;;;;9.77;6.50;;;21.40;94.60;;;;;;4841509;29;20499;-91
2023/05/15 14:49:10;;;;;;;8.13;6.57;;;21.30;95.50;;;;;;4838977;29;20133;-91
2023/05/15 14:51:35;;;;;;;8.35;6.70;;;21.30;94.30;;;;;;4852296;29;20041;-90
2023/05/15 14:54:03;;;;;;;8.43;6.53;;;21.30;94.30;;;;;;4852890;29;20550;-91
2023/05/15 14:56:28;;;;;;;7.88;6.72;;;21.30;95.70;;;;;;4846866;29;20071;-90
2023/05/15 14:59:00;;;;;;;8.05;6.30;;;21.30;94.00;;;;;;4852043;29;20061;-89
2023/05/15 15:01:25;;;;;;;8.18;7.18;;;21.20;93.40;;;;;;4847235;29;20046;-89
2023/05/15 15:03:51;;;;;;;8.60;6.38;;;21.20;95.90;;;;;;4844997;29;20785;-88
2023/05/15 15:06:19;;;;;;;9.23;5.90;;;21.10;94.20;;;;;;4850486;29;20046;-92
2023/05/15 15:08:51;;;;;;;8.65;7.43;;;21.00;92.30;;;;;;4851984;29;20053;-89
2023/05/15 15:11:18;;;;;;;8.30;6.70;;;21.00;95.90;;;;;;4854321;29;20050;-90
2023/05/15 15:14:19;;;;;;;7.32;6.50;;;21.00;95.30;;;;;;4848019;29;20106;-90
2023/05/15 15:20:48;;;;;;;8.88;7.07;;;21.00;95.80;;;;;;4800010;29;20138;-92
2023/05/15 15:23:14;;;;;;;8.02;7.22;;;21.00;96.50;;;;;;4828178;29;20398;-92
2023/05/15 15:25:43;;;;;;;7.60;6.60;;;21.00;98.20;;;;;;4845320;29;20041;-94
2023/05/15 15:28:17;;;;;;;7.60;6.80;;;21.10;98.10;;;;;;4839165;29;20050;-93
2023/05/15 15:30:43;;;;;;;7.70;6.50;;;21.00;99.00;;;;;;4859636;29;20042;-93
2023/05/15 15:33:09;;;;;;;8.32;6.45;;;21.00;99.50;;;;;;4839943;29;20053;-93
2023/05/15 15:35:34;;;;;;;7.20;6.38;;;21.00;99.50;;;;;;4826963;29;20050;-93
2023/05/15 15:38:00;;;;;;;10.05;6.40;;;21.00;98.90;;;;;;4838221;29;20049;-89
2023/05/15 15:40:41;;;;;;;7.72;6.28;;;21.10;98.00;;;;;;4834353;24;20410;-93
2023/05/15 15:46:46;;;;;;;8.38;7.18;;;21.00;98.10;;;;;;4810997;29;20057;-91
2023/05/15 15:50:08;;;;;;;9.13;6.45;;;20.80;95.40;;;;;;4941690;24;20054;-91
2023/05/15 15:52:36;;;;;;;9.65;7.88;;;20.60;96.80;;;;;;4806625;29;20111;-94
2023/05/15 15:55:10;;;;;;;9.15;7.50;;;20.60;96.00;;;;;;4793391;29;20050;-94
2023/05/15 15:57:36;;;;;;;10.73;7.38;;;20.60;97.00;;;;;;4809549;29;20084;-94
2023/05/15 16:00:07;;;;;;;9.25;6.63;;;20.50;97.90;;;;;;4794065;29;20050;-95
2023/05/15 16:02:39;;;;;;;8.77;7.60;;;20.50;98.70;;;;;;4788580;29;20264;-90
2023/05/15 16:05:06;;;;;;;10.27;7.63;;;20.50;97.80;;;;;;4824516;29;20126;-95
2023/05/15 16:07:32;;;;;;;8.77;7.35;;;20.40;97.80;;;;;;4826736;29;20121;-95
2023/05/15 16:10:02;;;;;;;8.07;7.00;;;20.40;98.90;;;;;;4811403;29;20050;-93
2023/05/15 16:12:57;;;;;;;12.80;7.43;;;20.30;95.70;;;;;;4792943;29;20049;-91
2023/05/15 16:20:21;;;;;;;10.00;8.35;;;19.90;91.10;;;;;;4848477;24;20112;-87
2023/05/15 16:23:02;;;;;;;11.52;7.72;;;19.40;94.50;;;;;;4856762;29;20053;-92
2023/05/15 16:25:28;;;;;;;11.45;7.63;;;19.40;95.40;;;;;;4845336;29;20053;-89
2023/05/15 16:28:08;;;;;;;12.50;7.47;;;19.40;95.90;;;;;;4873557;29;20046;-88
2023/05/15 16:30:36;;;;;;;8.90;6.88;;;19.30;95.30;;;;;;4856809;29;20057;-90
2023/05/15 16:33:23;;;;;;;9.43;6.63;;;19.20;95.20;;;;;;4857616;29;20506;-91
2023/05/15 16:35:54;;;;;;;9.07;8.00;;;19.10;95.60;;;;;;4855888;29;20054;-91
2023/05/15 16:38:51;;;;;;;;;;;;;;;;;;;;;
2023/05/15 16:41:30;;;;;;;8.48;6.45;;;18.80;93.80;;;;;;4842549;29;20058;-91
2023/05/15 16:44:15;;;;;;;9.10;7.18;;;18.70;95.00;;;;;;4846216;29;20093;-90
2023/05/15 16:46:52;;;;;;;9.23;6.70;;;18.70;96.60;;;;;;4854353;24;20045;-91
2023/05/15 16:49:18;;;;;;;7.72;6.30;;;18.70;96.30;;;;;;4836122;24;20089;-90
2023/05/15 16:51:55;;;;;;;9.70;6.88;;;18.70;94.80;;;;;;4840263;29;20219;-88
2023/05/15 16:54:29;;;;;;;9.40;7.88;;;18.60;94.90;;;;;;4840372;29;20042;-92
2023/05/15 16:57:16;;;;;;;9.05;6.97;;;18.50;97.40;;;;;;4841919;29;20106;-89
2023/05/15 16:59:42;;;;;;;10.52;7.18;;;18.50;97.40;;;;;;4838602;29;20045;-91
2023/05/15 17:02:08;;;;;;;8.90;7.55;;;18.50;96.80;;;;;;4840574;29;20538;-93
2023/05/15 17:04:34;;;;;;;9.73;7.78;;;18.30;94.60;;;;;;4866115;24;20045;-91
2023/05/15 17:07:02;;;;;;;13.88;8.98;;;18.20;97.80;;;;;;4822398;29;20155;-91
2023/05/15 17:09:28;;;;;;;11.00;8.95;;;18.10;96.00;;;;;;4826542;29;20045;-90
2023/05/15 17:11:56;;;;;;;9.70;8.70;;;18.00;94.50;;;;;;4824885;29;20043;-91
2023/05/15 17:17:00;;;;;;;12.32;9.10;;;17.90;98.50;;;;;;4862120;29;20053;-91
2023/05/15 17:19:28;;;;;;;12.15;9.60;;;17.90;99.00;;;;;;4846508;29;20490;-92
2023/05/15 17:22:06;;;;;;;11.77;9.57;;;17.90;99.50;;;;;;4863602;29;20057;-92
2023/05/15 17:24:32;;;;;;;12.18;9.88;;;17.80;99.70;;;;;;4863535;29;20051;-90
2023/05/15 17:26:58;;;;;;;14.93;10.43;;;17.80;98.80;;;;;;4879749;29;20041;-90
2023/05/15 17:29:33;;;;;;;11.93;9.07;;;17.80;98.60;;;;;;4873544;29;20186;-90
2023/05/15 17:32:12;;;;;;;15.13;11.27;;;17.60;96.10;;;;;;4844914;29;20055;-90
2023/05/15 17:34:41;;;;;;;13.75;10.55;;;17.60;98.90;;;;;;4845090;29;20046;-90
2023/05/15 17:37:13;;;;;;;11.60;9.38;;;17.60;99.00;;;;;;4848901;29;20041;-90
2023/05/15 17:39:42;;;;;;;11.57;9.30;;;17.50;97.40;;;;;;4879128;29;20581;-91
2023/05/15 17:42:20;;;;;;;10.15;8.52;;;17.40;96.80;;;;;;4847515;29;20053;-88
2023/05/15 17:44:46;;;;;;;12.07;9.30;;;17.10;96.20;;;;;;4862183;29;20049;-92
2023/05/15 17:47:14;;;;;;;10.75;8.98;;;16.70;95.90;;;;;;4863429;29;20049;-90
2023/05/15 17:49:52;;;;;;;12.95;8.98;;;16.50;95.70;;;;;;4841236;29;20037;-89
2023/05/15 17:52:24;;;;;;;11.60;9.15;;;16.30;96.30;;;;;;4869170;29;20068;-90
2023/05/15 17:54:52;;;;;;;11.32;8.82;;;16.30;96.10;;;;;;4849767;29;20499;-90
2023/05/15 17:57:21;;;;;;;14.25;9.93;;;16.30;96.20;;;;;;4861336;29;20049;-89
2023/05/15 17:59:56;;;;;;;11.02;9.52;;;16.40;97.20;;;;;;4846185;29;20573;-90
2023/05/15 18:02:25;;;;;;;13.73;9.07;;;16.50;97.90;;;;;;4858839;29;20049;-92
2023/05/15 18:04:59;;;;;;;11.93;10.05;;;16.60;97.60;;;;;;4862121;29;20057;-91
2023/05/15 18:07:25;;;;;;;10.43;9.32;;;16.60;98.80;;;;;;4860573;29;20105;-89
2023/05/15 18:09:50;;;;;;;11.68;8.88;;;16.70;99.00;;;;;;4843768;29;20045;-90
2023/05/15 18:12:25;;;;;;;9.43;6.85;;;16.80;98.60;;;;;;4844935;29;20042;-91
2023/05/15 18:14:50;;;;;;;9.27;6.85;;;16.80;97.50;;;;;;4853431;24;20061;-90
2023/05/15 18:17:16;;;;;;;9.65;7.18;;;16.70;96.10;;;;;;4807571;29;20051;-90
2023/05/15 18:19:45;;;;;;;9.82;7.45;;;16.60;96.70;;;;;;4806861;29;20042;-90
2023/05/15 18:22:19;;;;;;;7.35;5.72;;;16.60;97.00;;;;;;4824677;24;20450;-89
2023/05/15 18:24:48;;;;;;;8.65;6.68;;;16.50;96.00;;;;;;4847506;24;20058;-89
2023/05/15 18:27:13;;;;;;;9.68;5.47;;;16.40;96.10;;;;;;4829376;29;20059;-88
2023/05/15 18:29:48;;;;;;;8.80;6.05;;;16.20;95.10;;;;;;4823802;29;20429;-89
2023/05/15 18:32:14;;;;;;;10.23;7.07;;;16.00;95.00;;;;;;4822850;24;20110;-90
2023/05/15 18:34:51;;;;;;;10.25;6.60;;;15.90;97.40;;;;;;4858519;29;20091;-92
2023/05/15 18:37:23;;;;;;;10.32;7.45;;;15.90;98.30;;;;;;4886954;24;21521;-89
2023/05/15 18:39:57;;;;;;;9.90;6.85;;;15.90;99.30;;;;;;4843530;29;20054;-89
2023/05/15 18:42:38;;;;;;;8.25;5.35;;;15.80;99.90;;;;;;4844468;29;20050;-88
2023/05/15 18:45:07;;;;;;;8.27;6.43;;;15.90;98.30;;;;;;4844050;29;20050;-89
2023/05/15 18:47:45;;;;;;;8.57;5.55;;;15.90;98.90;;;;;;4844318;29;20048;-91
2023/05/15 18:50:12;;;;;;;7.82;5.18;;;15.90;98.30;;;;;;4843474;29;20141;-90
2023/05/15 18:52:38;;;;;;;8.02;5.93;;;15.80;98.20;;;;;;4843181;29;20545;-89
2023/05/15 18:55:10;;;;;;;8.50;6.00;;;15.90;98.60;;;;;;4848034;29;20080;-87
2023/05/15 18:57:37;;;;;;;5.68;4.13;;;15.80;99.20;;;;;;4839041;29;20552;-87
2023/05/15 19:00:06;;;;;;;5.40;3.90;;;15.80;98.30;;;;;;4845059;29;20093;-87
2023/05/15 19:02:33;;;;;;;6.40;2.85;;;15.70;98.20;;;;;;4842706;29;20109;-87
2023/05/15 19:04:59;;;;;;;5.95;3.42;;;15.60;97.70;;;;;;4843725;29;20049;-87
2023/05/15 19:07:27;;;;;;;5.80;3.72;;;15.50;97.80;;;;;;4851323;29;20053;-88
2023/05/15 19:09:53;;;;;;;4.43;2.20;;;15.40;98.30;;;;;;4844245;29;20072;-89
2023/05/15 19:12:22;;;;;;;5.15;3.10;;;15.30;97.10;;;;;;4842551;29;20581;-87
2023/05/15 19:15:00;;;;;;;5.68;3.35;;;15.10;97.50;;;;;;4836759;29;20049;-88
2023/05/15 19:17:40;;;;;;;5.45;2.55;;;14.90;98.40;;;;;;4841624;29;20499;-89
2023/05/15 19:20:11;;;;;;;5.43;2.95;;;14.90;98.50;;;;;;4844552;29;20073;-89
2023/05/15 19:23:25;;;;;;;5.25;2.75;;;14.90;99.10;;;;;;4842445;24;20050;-90
2023/05/15 19:25:59;;;;;;;5.65;3.10;;;14.90;98.70;;;;;;4822528;29;20074;-90
2023/05/15 19:29:52;;;;;;;4.93;2.97;;;14.80;99.70;;;;;;4847535;24;20049;-88
2023/05/15 19:32:49;;;;;;;5.45;2.47;;;14.80;99.90;;;;;;4849719;29;20045;-90
2023/05/15 19:35:22;;;;;;;6.55;2.40;;;14.80;99.90;;;;;;4859531;24;20092;-90
2023/05/15 19:38:40;;;;;;;6.78;2.45;;;14.80;99.90;;;;;;4834934;29;20423;-88
2023/05/15 19:41:27;;;;;;;4.30;2.13;;;14.80;99.90;;;;;;4838651;24;20050;-89
2023/05/15 19:47:45;;;;;;;3.35;1.83;;;14.80;99.70;;;;;;4826797;29;20042;-89
2023/05/15 19:53:32;;;;;;;4.90;1.77;;;14.80;99.90;;;;;;4788514;29;20054;-91
2023/05/15 19:56:26;;;;;;;5.57;1.58;;;14.70;99.90;;;;;;4734265;30;20061;-91
2023/05/15 19:58:59;;;;;;;6.85;1.50;;;14.70;99.90;;;;;;4989465;24;20029;-89
2023/05/15 20:04:35;;;;;;;4.60;1.50;;;14.60;99.00;;;;;;4842046;29;20374;-90
2023/05/15 20:07:06;;;;;;;7.45;1.50;;;14.50;98.90;;;;;;4853226;29;20049;-88
2023/05/15 20:09:47;;;;;;;6.13;1.65;;;14.40;99.20;;;;;;4843955;29;20411;-89
2023/05/15 20:12:13;;;;;;;7.50;1.70;;;14.30;99.40;;;;;;4844759;29;20042;-89
2023/05/15 20:14:40;;;;;;;7.32;1.60;;;14.30;99.90;;;;;;4858234;29;20101;-91
2023/05/15 20:17:35;;;;;;;4.18;1.40;;;14.30;99.90;;;;;;4861417;29;20514;-90
2023/05/15 20:20:22;;;;;;;8.57;1.70;;;14.20;99.90;;;;;;4860665;23;20078;-88
2023/05/15 20:23:07;;;;;;;5.03;1.70;;;14.10;99.90;;;;;;4840308;29;20051;-89
2023/05/15 20:25:56;;;;;;;6.38;1.58;;;14.10;99.90;;;;;;4857343;24;20056;-89
2023/05/15 20:28:24;;;;;;;7.18;1.60;;;14.00;99.90;;;;;;4840743;24;20061;-88
2023/05/15 20:30:59;;;;;;;7.68;1.42;;;14.10;99.90;;;;;;4859829;24;20050;-88
2023/05/15 20:33:25;;;;;;;6.43;1.70;;;14.00;99.90;;;;;;4842507;29;20053;-89
2023/05/15 20:35:57;;;;;;;6.13;1.27;;;13.90;99.90;;;;;;4841905;29;20045;-88
2023/05/15 20:41:03;;;;;;;4.50;1.13;;;13.80;99.90;;;;;;4837462;24;20062;-88
2023/05/15 20:43:46;;;;;;;4.90;1.25;;;13.70;99.90;;;;;;4841300;29;20042;-89
2023/05/15 20:46:15;;;;;;;4.70;1.20;;;13.70;99.90;;;;;;4842504;29;20053;-87
2023/05/15 20:49:06;;;;;;;3.55;1.00;;;13.70;99.90;;;;;;4834638;29;20391;-88
2023/05/15 20:51:32;;;;;;;5.57;1.35;;;13.60;99.90;;;;;;4848960;24;20046;-91
2023/05/15 20:53:58;;;;;;;3.72;0.85;;;13.50;99.90;;;;;;4849047;29;20507;-90
2023/05/15 20:56:24;;;;;;;4.57;1.10;;;13.50;99.90;;;;;;4873125;29;20045;-88
2023/05/15 20:58:50;;;;;;;5.45;0.95;;;13.40;99.90;;;;;;4859723;29;20057;-89
2023/05/15 21:01:19;;;;;;;5.80;1.30;;;13.30;99.90;;;;;;4853522;29;20053;-89
2023/05/15 21:03:44;;;;;;;8.30;1.50;;;13.30;99.90;;;;;;4850779;29;20578;-88
2023/05/15 21:06:10;;;;;;;4.45;1.30;;;13.30;99.90;;;;;;4857160;29;20057;-89
2023/05/15 21:08:39;;;;;;;6.95;1.42;;;13.10;99.90;;;;;;4846704;29;20061;-89
2023/05/15 21:11:28;;;;;;;7.07;1.42;;;13.00;99.90;;;;;;4873094;24;20062;-89
2023/05/15 21:14:00;;;;;;;7.60;1.85;;;13.00;99.90;;;;;;4852796;29;20061;-88
2023/05/15 21:16:32;;;;;;;7.95;1.75;;;12.90;99.90;;;;;;4852072;29;20046;-90
2023/05/15 21:19:04;;;;;;;8.80;1.60;;;12.80;99.90;;;;;;4858201;29;20053;-90
2023/05/15 21:21:47;;;;;;;9.93;2.00;;;12.70;99.70;;;;;;4844166;29;20495;-90
2023/05/15 21:24:22;;;;;;;9.85;1.80;;;12.70;99.20;;;;;;4843157;29;20486;-91
2023/05/15 21:27:06;;;;;;;9.23;1.85;;;12.70;99.90;;;;;;4840922;29;20407;-89
2023/05/15 21:29:55;;;;;;;10.05;2.03;;;12.70;99.80;;;;;;4852654;29;20121;-90
2023/05/15 21:32:22;;;;;;;8.77;2.15;;;12.60;99.80;;;;;;4822071;29;20528;-87
2023/05/15 21:34:48;;;;;;;6.82;1.60;;;12.60;99.80;;;;;;4846925;29;20112;-88
2023/05/15 21:37:45;;;;;;;6.15;1.55;;;12.60;99.90;;;;;;4825706;29;20047;-90
2023/05/15 21:40:29;;;;;;;10.50;1.95;;;12.50;99.90;;;;;;4848558;29;20068;-89
2023/05/15 21:42:55;;;;;;;9.48;1.88;;;12.50;99.90;;;;;;4839122;29;20061;-91
2023/05/15 21:48:32;;;;;;;10.70;2.22;;;12.40;99.90;;;;;;4860247;29;20469;-87
2023/05/15 21:50:58;;;;;;;7.70;1.88;;;12.50;99.90;;;;;;4834708;29;20129;-90
2023/05/15 21:53:27;;;;;;;8.18;1.58;;;12.50;99.90;;;;;;4852992;29;20125;-90
2023/05/15 21:59:32;;;;;;;9.13;1.80;;;12.60;99.90;;;;;;4835521;29;20045;-88
2023/05/15 22:05:38;;;;;;;9.27;1.80;;;12.60;99.90;;;;;;4841837;29;20050;-89
2023/05/15 22:08:21;;;;;;;9.05;1.75;;;12.50;99.90;;;;;;4859470;29;20402;-89
2023/05/15 22:10:53;;;;;;;9.63;1.90;;;12.60;99.90;;;;;;4846661;29;20058;-89
2023/05/15 22:14:41;;;;;;;15.18;2.00;;;12.60;99.90;;;;;;4858525;29;20054;-90
2023/05/15 22:17:39;;;;;;;9.32;2.78;;;12.60;99.90;;;;;;4843811;29;20053;-89
2023/05/15 22:23:00;;;;;;;9.93;2.13;;;12.70;99.90;;;;;;4826804;29;20060;-90
2023/05/15 22:25:53;;;;;;;8.50;2.03;;;12.70;99.90;;;;;;4834583;29;20053;-89
2023/05/15 22:28:28;;;;;;;11.05;2.20;;;12.80;99.90;;;;;;4842475;29;20081;-91
2023/05/15 22:34:24;;;;;;;;;;;;;;;;;;;;;
2023/05/15 22:37:15;;;;;;;;;;;;;;;;;;;;;
2023/05/15 22:40:15;;;;;;;9.15;2.15;;;12.70;99.90;;;;;;4838659;24;20073;-88
2023/05/15 22:42:54;;;;;;;;;;;;;;;;;;;;;
2023/05/15 22:49:18;;;;;;;15.18;2.65;;;12.60;99.90;;;;;;4911273;24;20054;-89
2023/05/15 22:51:50;;;;;;;;;;;;;;;;;;;;;
2023/05/15 22:55:09;;;;;;;10.38;2.55;;;12.50;99.90;;;;;;4815547;29;20155;-90
2023/05/15 22:57:35;;;;;;;16.35;2.92;;;12.40;99.90;;;;;;4795684;29;20233;-88
2023/05/15 23:00:22;;;;;;;13.20;2.40;;;12.40;99.90;;;;;;4820083;29;20070;-89
2023/05/15 23:03:55;;;;;;;;;;;;;;;;;;;;;
2023/05/15 23:07:12;;;;;;;17.17;2.72;;;12.30;99.90;;;;;;4825858;29;20064;-90
2023/05/15 23:13:50;;;;;;;13.18;2.95;;;12.30;99.90;;;;;;4841881;29;20048;-89
2023/05/15 23:17:01;;;;;;;14.85;2.95;;;12.30;99.90;;;;;;4844220;29;20084;-89
2023/05/15 23:19:48;;;;;;;14.05;2.83;;;12.20;99.60;;;;;;4803262;29;20054;-91
2023/05/15 23:22:42;;;;;;;13.07;2.50;;;12.20;99.90;;;;;;4866152;23;20463;-90
2023/05/15 23:26:01;;;;;;;;;;;;;;;;;;;;;
2023/05/15 23:33:19;;;;;;;9.18;2.20;;;12.00;99.90;;;;;;4843557;29;20050;-90
2023/05/15 23:39:16;;;;;;;;;;;;;;;;;;;;;
2023/05/15 23:45:23;;;;;;;12.13;2.67;;;11.90;99.90;;;;;;4851153;23;20136;-90
2023/05/15 23:51:20;;;;;;;;;;;;;;;;;;;;;
2023/05/15 23:55:04;;;;;;;;;;;;;;;;;;;;;
2023/05/15 23:58:13;;;;;;;18.27;2.45;;;11.90;99.90;;;;;;4854991;29;20053;-89
